Time;durP1;ratioP1;P1;durP2;ratioP2;P2;SDS_P1;SDS_P2;PMS_P1;PMS_P2;Temp;Humidity;BMP_temperature;BMP_pressure;BME280_temperature;BME280_humidity;BME280_pressure;Samples;Min_cycle;Max_cycle;Signal;HPM_P1;HPM_P2
2021/12/29 00:02:24;;;;;;;2.80;1.88;;;;;;;19.12;45.71;98895.75;5130456;28;20153;-63
2021/12/29 00:04:50;;;;;;;2.78;1.80;;;;;;;19.11;45.64;98894.16;5131558;27;20526;-64
2021/12/29 00:07:15;;;;;;;2.85;1.92;;;;;;;19.10;45.69;98880.69;5131490;28;20043;-64
2021/12/29 00:09:41;;;;;;;2.72;1.83;;;;;;;19.11;45.50;98893.38;5131679;28;20092;-63
2021/12/29 00:12:10;;;;;;;2.63;1.70;;;;;;;19.09;45.60;98887.41;5131351;28;20035;-64
2021/12/29 00:14:36;;;;;;;2.63;1.60;;;;;;;19.10;45.61;98875.94;5131526;27;20096;-63
2021/12/29 00:17:03;;;;;;;2.58;1.90;;;;;;;19.10;45.50;98884.25;5131499;27;20406;-63
2021/12/29 00:19:28;;;;;;;2.40;1.67;;;;;;;19.11;45.42;98880.31;5131380;27;20043;-63
2021/12/29 00:21:54;;;;;;;3.10;2.10;;;;;;;19.11;45.61;98894.16;5131354;28;20038;-63
2021/12/29 00:24:19;;;;;;;2.25;1.42;;;;;;;19.11;45.55;98894.16;5131434;27;20491;-63
2021/12/29 00:26:45;;;;;;;2.08;1.30;;;;;;;19.11;45.43;98896.94;5131353;27;20059;-63
2021/12/29 00:29:10;;;;;;;2.10;1.40;;;;;;;19.11;45.49;98908.03;5131396;28;20051;-63
2021/12/29 00:31:36;;;;;;;1.75;1.25;;;;;;;19.12;45.46;98917.13;5131179;28;20534;-64
2021/12/29 00:34:02;;;;;;;2.35;1.50;;;;;;;19.11;45.50;98919.09;5131038;27;20035;-64
2021/12/29 00:36:27;;;;;;;1.95;1.25;;;;;;;19.11;45.45;98910.00;5131150;27;20051;-64
2021/12/29 00:38:53;;;;;;;2.25;1.35;;;;;;;19.12;45.45;98912.38;5130971;27;20070;-63
2021/12/29 00:41:19;;;;;;;2.10;1.45;;;;;;;19.10;45.60;98920.28;5131114;28;20089;-64
2021/12/29 00:43:45;;;;;;;2.08;1.30;;;;;;;19.09;45.39;98924.22;5131039;27;20061;-63
2021/12/29 00:46:13;;;;;;;2.45;1.50;;;;;;;19.11;45.42;98935.75;5130995;28;20126;-63
2021/12/29 00:48:42;;;;;;;1.55;1.10;;;;;;;19.09;45.37;98917.91;5131105;27;20527;-64
2021/12/29 00:51:08;;;;;;;2.00;1.35;;;;;;;19.10;45.41;98917.50;5131320;27;20050;-64
2021/12/29 00:53:34;;;;;;;2.22;1.23;;;;;;;19.21;45.33;98920.41;5131584;27;20091;-65
2021/12/29 00:56:00;;;;;;;1.70;1.10;;;;;;;19.68;44.55;98919.06;5131459;27;20031;-64
2021/12/29 00:58:26;;;;;;;1.63;1.15;;;;;;;20.80;42.08;98942.75;5130933;27;20054;-66
2021/12/29 01:00:52;;;;;;;1.52;1.00;;;;;;;20.61;42.40;98926.31;5130709;28;20035;-66
2021/12/29 01:03:17;;;;;;;1.48;0.80;;;;;;;20.32;42.92;98937.16;5131123;27;20568;-66
2021/12/29 01:05:44;;;;;;;1.35;0.90;;;;;;;20.07;43.23;98930.56;5130726;27;20051;-66
2021/12/29 01:08:10;;;;;;;1.13;0.90;;;;;;;19.88;43.79;98948.22;5130814;27;20062;-66
2021/12/29 01:10:37;;;;;;;1.30;0.80;;;;;;;19.74;43.91;98954.41;5130524;27;20032;-66
2021/12/29 01:13:03;;;;;;;1.55;1.00;;;;;;;19.63;44.21;98950.69;5130608;27;20062;-66
2021/12/29 01:15:37;;;;;;;1.88;0.80;;;;;;;19.55;44.38;98950.97;5130682;27;20043;-66
2021/12/29 01:18:05;;;;;;;1.35;0.80;;;;;;;19.46;44.50;98938.19;5129352;28;20043;-57
2021/12/29 01:20:32;;;;;;;1.20;0.80;;;;;;;19.42;44.57;98951.19;5130523;27;20139;-57
2021/12/29 01:22:59;;;;;;;1.25;0.80;;;;;;;19.38;44.75;98953.16;5130749;27;20503;-57
2021/12/29 01:25:25;;;;;;;1.23;0.80;;;;;;;19.35;44.82;98942.00;5130460;27;20538;-57
2021/12/29 01:27:54;;;;;;;1.10;0.77;;;;;;;19.32;44.73;98948.31;5130346;27;20054;-57
2021/12/29 01:30:20;;;;;;;0.93;0.60;;;;;;;19.30;44.92;98978.38;5130299;28;20426;-57
2021/12/29 01:32:45;;;;;;;1.27;0.70;;;;;;;19.25;44.86;98960.09;5130306;27;20039;-57
2021/12/29 01:35:12;;;;;;;1.15;0.68;;;;;;;19.25;45.04;98960.09;5130248;27;20418;-57
2021/12/29 01:37:38;;;;;;;1.10;0.60;;;;;;;19.25;44.96;98966.44;5130277;27;20036;-57
2021/12/29 01:40:08;;;;;;;0.80;0.60;;;;;;;19.22;44.99;98980.25;5130022;27;20047;-57
2021/12/29 01:42:33;;;;;;;0.80;0.60;;;;;;;19.23;44.97;98976.31;5130320;27;20073;-57
2021/12/29 01:44:59;;;;;;;1.10;0.60;;;;;;;19.23;44.92;98979.88;5130375;28;20087;-57
2021/12/29 01:47:27;;;;;;;1.48;0.70;;;;;;;19.21;44.82;98971.13;5130304;27;20414;-57
2021/12/29 01:49:53;;;;;;;1.20;0.75;;;;;;;19.20;45.02;98979.81;5130303;27;20507;-57
2021/12/29 01:52:23;;;;;;;0.73;0.50;;;;;;;19.20;45.00;99002.78;5130292;27;20035;-66
2021/12/29 01:54:49;;;;;;;1.40;0.80;;;;;;;19.20;44.93;98991.69;5130271;27;20429;-66
2021/12/29 01:57:14;;;;;;;0.90;0.50;;;;;;;19.20;44.83;99007.53;5130164;28;20040;-66
2021/12/29 01:59:41;;;;;;;0.77;0.60;;;;;;;19.18;45.10;98999.59;5129941;27;20486;-65
2021/12/29 02:02:07;;;;;;;0.90;0.60;;;;;;;19.19;45.04;99001.19;5130079;27;20043;-66
2021/12/29 02:04:32;;;;;;;0.85;0.55;;;;;;;19.15;45.14;99003.13;5129951;27;20043;-66
2021/12/29 02:06:58;;;;;;;0.55;0.40;;;;;;;19.16;45.02;99009.47;5130092;27;20051;-66
2021/12/29 02:09:24;;;;;;;0.70;0.50;;;;;;;19.15;45.07;99000.38;5130797;27;20047;-66
2021/12/29 02:11:50;;;;;;;0.63;0.57;;;;;;;19.15;44.98;99003.13;5133458;27;20461;-66
2021/12/29 02:14:16;;;;;;;0.68;0.50;;;;;;;19.14;44.96;98998.75;5133878;27;20043;-66
2021/12/29 02:16:41;;;;;;;1.00;0.60;;;;;;;19.13;44.99;98990.81;5133299;27;20055;-57
2021/12/29 02:19:10;;;;;;;0.88;0.55;;;;;;;19.15;44.96;99008.69;5133464;27;20418;-57
2021/12/29 02:21:40;;;;;;;0.52;0.43;;;;;;;19.13;44.97;99016.53;5133275;27;20043;-57
2021/12/29 02:26:37;;;;;;;0.70;0.47;;;;;;;19.15;44.95;99007.88;5133445;27;20046;-57
2021/12/29 02:29:07;;;;;;;0.60;0.40;;;;;;;19.14;44.94;99020.13;5133222;27;20039;-57
2021/12/29 02:31:32;;;;;;;0.40;0.30;;;;;;;19.16;44.96;99021.38;5133255;27;20039;-57
2021/12/29 02:33:58;;;;;;;0.63;0.45;;;;;;;19.16;44.95;99026.91;5133252;27;20403;-57
2021/12/29 02:36:25;;;;;;;0.45;0.30;;;;;;;19.13;44.99;99024.88;5133312;27;20047;-57
2021/12/29 02:38:54;;;;;;;1.02;0.57;;;;;;;19.16;44.86;99031.66;5133169;27;20065;-55
2021/12/29 02:41:20;;;;;;;0.90;0.50;;;;;;;19.16;44.79;99034.44;5133078;27;20039;-55
2021/12/29 02:43:47;;;;;;;0.70;0.35;;;;;;;19.15;44.93;99033.63;5133084;27;20126;-55
2021/12/29 02:46:16;;;;;;;0.52;0.47;;;;;;;19.15;44.97;99033.63;5132937;27;20043;-55
2021/12/29 02:48:53;;;;;;;0.40;0.32;;;;;;;19.15;44.88;99032.84;5133141;27;20076;-55
2021/12/29 02:51:19;;;;;;;0.77;0.45;;;;;;;19.16;44.87;99029.69;5132872;27;20068;-64
2021/12/29 02:53:44;;;;;;;0.90;0.47;;;;;;;19.16;44.79;99029.69;5132906;27;20039;-64
2021/12/29 02:56:10;;;;;;;0.80;0.38;;;;;;;19.16;44.88;99029.69;5133099;27;20031;-64
2021/12/29 02:58:36;;;;;;;0.55;0.30;;;;;;;19.15;44.92;99041.16;5132828;27;20510;-64
2021/12/29 03:01:09;;;;;;;0.40;0.40;;;;;;;19.15;44.84;99044.72;5132716;27;20049;-64
2021/12/29 03:03:37;;;;;;;0.30;0.30;;;;;;;19.17;44.95;99041.56;5132710;27;20039;-63
2021/12/29 03:06:04;;;;;;;0.60;0.40;;;;;;;19.12;44.88;99059.31;5132573;27;20067;-64
2021/12/29 03:08:29;;;;;;;0.50;0.30;;;;;;;19.14;44.85;99045.06;5132592;27;20502;-64
2021/12/29 03:10:55;;;;;;;0.40;0.40;;;;;;;19.15;44.87;99032.84;5132737;27;20065;-64
2021/12/29 03:13:26;;;;;;;0.40;0.30;;;;;;;19.13;44.81;99044.28;5132658;27;20039;-64
2021/12/29 03:15:53;;;;;;;0.20;0.20;;;;;;;19.14;44.85;99037.53;5132573;27;20043;-55
2021/12/29 03:18:18;;;;;;;0.68;0.50;;;;;;;19.15;44.84;99032.84;5132392;27;20084;-55
2021/12/29 03:20:45;;;;;;;0.50;0.30;;;;;;;19.13;44.92;99018.53;5132396;27;20444;-55
2021/12/29 03:23:10;;;;;;;0.50;0.40;;;;;;;19.15;44.92;99024.50;5132330;27;20047;-55
2021/12/29 03:25:36;;;;;;;0.70;0.55;;;;;;;19.14;44.93;99037.53;5132402;27;20406;-55
2021/12/29 03:28:02;;;;;;;0.85;0.40;;;;;;;19.13;44.84;99019.31;5132482;27;20035;-55
2021/12/29 03:30:31;;;;;;;0.45;0.30;;;;;;;19.13;44.76;99021.28;5132348;27;20047;-55
2021/12/29 03:33:05;;;;;;;0.45;0.38;;;;;;;19.13;44.84;99016.53;5132494;27;20039;-55
2021/12/29 03:35:46;;;;;;;0.75;0.45;;;;;;;19.12;44.73;99023.28;5132355;27;20054;-63
2021/12/29 03:38:17;;;;;;;0.45;0.30;;;;;;;19.11;44.76;99035.53;5132319;27;20404;-64
2021/12/29 03:40:43;;;;;;;1.17;0.43;;;;;;;19.11;44.86;99049.41;5132185;27;20040;-64
2021/12/29 03:43:10;;;;;;;0.20;0.20;;;;;;;19.13;44.83;99037.94;5132343;27;20047;-63
2021/12/29 03:45:37;;;;;;;0.57;0.40;;;;;;;19.13;44.87;99030.41;5132075;27;20053;-64
2021/12/29 03:48:07;;;;;;;0.32;0.30;;;;;;;19.13;44.72;99005.47;5131716;27;20039;-63
2021/12/29 03:50:34;;;;;;;0.85;0.50;;;;;;;19.13;44.65;98997.16;5131894;27;20047;-64
2021/12/29 03:53:00;;;;;;;0.25;0.25;;;;;;;19.13;44.83;99001.88;5132184;27;20403;-64
2021/12/29 03:55:25;;;;;;;0.40;0.30;;;;;;;19.12;44.63;99001.09;5131903;28;20483;-64
2021/12/29 03:57:50;;;;;;;0.85;0.45;;;;;;;19.15;44.63;99025.31;5131980;27;20384;-64
2021/12/29 04:00:18;;;;;;;0.38;0.38;;;;;;;19.13;44.77;99002.69;5131503;28;20047;-64
2021/12/29 04:02:44;;;;;;;0.30;0.30;;;;;;;19.13;44.71;98994.38;5131810;27;20562;-64
2021/12/29 04:05:12;;;;;;;0.25;0.25;;;;;;;19.14;44.71;99004.28;5131798;27;20059;-64
2021/12/29 04:07:38;;;;;;;0.32;0.30;;;;;;;19.11;44.59;99018.09;5131758;27;20047;-64
2021/12/29 04:10:06;;;;;;;0.30;0.20;;;;;;;19.12;44.71;99016.94;5131654;27;20043;-64
2021/12/29 04:12:31;;;;;;;0.52;0.40;;;;;;;19.12;44.70;99020.50;5131846;27;20043;-64
2021/12/29 04:14:57;;;;;;;0.40;0.28;;;;;;;19.13;44.71;99008.22;5131807;28;20449;-55
2021/12/29 04:17:29;;;;;;;0.30;0.30;;;;;;;19.14;44.76;98998.75;5131555;27;20043;-55
2021/12/29 04:22:39;;;;;;;0.77;0.40;;;;;;;19.14;44.69;99006.25;5131459;28;20054;-55
2021/12/29 04:25:05;;;;;;;0.30;0.30;;;;;;;19.13;44.77;99016.53;5131278;28;20039;-55
2021/12/29 04:27:31;;;;;;;0.52;0.30;;;;;;;19.13;44.76;99019.31;5131356;27;20051;-55
2021/12/29 04:29:56;;;;;;;0.30;0.30;;;;;;;19.14;44.71;99026.47;5131301;27;20067;-55
2021/12/29 04:32:22;;;;;;;0.40;0.30;;;;;;;19.15;44.74;99030.06;5130793;27;20072;-64
2021/12/29 04:34:47;;;;;;;2.83;0.30;;;;;;;19.14;44.83;99029.22;5131188;27;20050;-64
2021/12/29 04:37:12;;;;;;;0.50;0.30;;;;;;;19.14;44.65;99037.53;5131477;28;20449;-64
2021/12/29 04:39:38;;;;;;;0.50;0.38;;;;;;;19.12;44.72;99039.09;5131201;28;20046;-64
2021/12/29 04:42:04;;;;;;;0.35;0.28;;;;;;;19.13;44.84;99040.69;5131031;27;20083;-64
2021/12/29 04:44:29;;;;;;;0.40;0.40;;;;;;;19.11;44.92;99032.75;5130971;27;20051;-64
2021/12/29 04:46:57;;;;;;;0.75;0.20;;;;;;;19.12;44.81;99026.03;5131006;28;20380;-64
2021/12/29 04:49:26;;;;;;;0.45;0.25;;;;;;;19.12;44.78;99028.81;5131036;27;20039;-64
2021/12/29 04:52:02;;;;;;;0.55;0.35;;;;;;;19.10;44.81;99027.59;5130957;27;20042;-55
2021/12/29 04:54:29;;;;;;;0.40;0.30;;;;;;;19.12;44.94;99034.34;5130741;27;20422;-55
2021/12/29 04:56:55;;;;;;;0.30;0.30;;;;;;;19.13;44.85;99041.50;5130917;27;20125;-55
2021/12/29 04:59:21;;;;;;;0.80;0.30;;;;;;;19.12;44.91;99041.88;5130748;27;20035;-55
2021/12/29 05:01:47;;;;;;;0.30;0.30;;;;;;;19.11;44.99;99038.31;5130833;27;20043;-55
2021/12/29 05:04:20;;;;;;;0.40;0.30;;;;;;;19.10;44.95;99028.41;5130753;27;20047;-55
2021/12/29 05:09:29;;;;;;;0.30;0.30;;;;;;;19.09;44.96;99037.88;5130582;28;20049;-55
2021/12/29 05:11:55;;;;;;;0.70;0.40;;;;;;;19.09;45.02;99035.13;5129609;28;20024;-55
2021/12/29 05:14:20;;;;;;;0.70;0.50;;;;;;;19.11;44.98;99043.06;5130551;28;20568;-55
2021/12/29 05:16:45;;;;;;;0.40;0.30;;;;;;;19.10;44.99;99042.25;5130479;28;20126;-55
2021/12/29 05:19:11;;;;;;;0.40;0.30;;;;;;;19.12;44.97;99044.66;5130522;28;20043;-55
2021/12/29 05:21:36;;;;;;;0.43;0.32;;;;;;;19.11;44.98;99043.84;5130695;28;20055;-64
2021/12/29 05:24:02;;;;;;;0.40;0.40;;;;;;;19.09;45.07;99045.41;5130672;27;20046;-64
2021/12/29 05:26:27;;;;;;;0.60;0.40;;;;;;;19.09;45.10;99051.75;5130617;27;20039;-64
2021/12/29 05:28:53;;;;;;;0.57;0.40;;;;;;;19.09;45.05;99057.28;5130436;28;20411;-64
2021/12/29 05:31:19;;;;;;;0.57;0.35;;;;;;;19.07;44.88;99045.75;5130128;27;20073;-64
2021/12/29 05:33:44;;;;;;;0.40;0.40;;;;;;;19.11;45.06;99051.38;5120175;28;20044;-63
2021/12/29 05:36:10;;;;;;;0.43;0.40;;;;;;;19.10;45.02;99047.81;5109968;28;20040;-64
2021/12/29 05:38:35;;;;;;;0.32;0.32;;;;;;;19.10;45.00;99047.00;5109709;28;20499;-64
2021/12/29 05:41:01;;;;;;;0.80;0.50;;;;;;;19.11;45.01;99030.00;5109870;28;20466;-64
2021/12/29 05:43:26;;;;;;;0.45;0.45;;;;;;;19.08;45.01;99049.34;5109624;28;20048;-64
2021/12/29 05:45:52;;;;;;;0.40;0.40;;;;;;;19.11;44.98;99054.94;5112989;28;20049;-64
2021/12/29 05:48:18;;;;;;;0.30;0.30;;;;;;;19.12;44.93;99053.75;5113626;28;20043;-64
2021/12/29 05:50:44;;;;;;;0.57;0.38;;;;;;;19.12;45.05;99056.53;5094965;28;20074;-64
2021/12/29 05:53:09;;;;;;;0.63;0.40;;;;;;;19.12;44.93;99066.81;5113165;28;20495;-63
2021/12/29 05:55:35;;;;;;;0.30;0.30;;;;;;;19.11;44.97;99070.78;5113241;28;20443;-64
2021/12/29 05:58:01;;;;;;;0.77;0.43;;;;;;;19.11;44.86;99066.03;5113238;28;20035;-64
2021/12/29 06:00:28;;;;;;;0.57;0.40;;;;;;;19.11;45.00;99068.81;5113185;28;20078;-64
2021/12/29 06:02:54;;;;;;;0.30;0.30;;;;;;;19.13;45.00;99079.50;5112944;28;20047;-64
2021/12/29 06:05:21;;;;;;;0.47;0.38;;;;;;;19.38;44.64;99088.25;5113212;28;20105;-64
2021/12/29 06:07:46;;;;;;;0.85;0.30;;;;;;;20.17;42.84;99088.16;5113146;28;20114;-64
2021/12/29 06:10:11;;;;;;;0.43;0.32;;;;;;;19.99;43.21;99084.34;5113180;28;20059;-64
2021/12/29 06:12:38;;;;;;;0.40;0.30;;;;;;;19.83;43.59;99089.31;5112926;28;20127;-55
2021/12/29 06:15:05;;;;;;;0.65;0.40;;;;;;;20.01;43.37;99098.69;5113001;28;20055;-55
2021/12/29 06:17:30;;;;;;;0.30;0.30;;;;;;;21.22;40.83;99099.16;5112796;28;20323;-64
2021/12/29 06:19:56;;;;;;;0.47;0.32;;;;;;;20.99;41.35;99107.69;5112878;28;20044;-64
2021/12/29 06:22:22;;;;;;;0.43;0.30;;;;;;;20.66;41.87;99108.59;5112993;28;20130;-64
2021/12/29 06:24:52;;;;;;;0.38;0.30;;;;;;;20.37;42.48;99107.44;5112748;28;20200;-64
2021/12/29 06:27:18;;;;;;;0.30;0.25;;;;;;;20.16;42.93;99108.78;5112972;28;20138;-64
2021/12/29 06:29:44;;;;;;;0.40;0.40;;;;;;;19.97;43.11;99106.16;5113065;28;20058;-56
2021/12/29 06:32:09;;;;;;;0.40;0.40;;;;;;;19.85;43.45;99115.50;5112945;28;20044;-56
2021/12/29 06:34:36;;;;;;;0.77;0.40;;;;;;;19.71;43.65;99118.88;5112947;28;20084;-56
2021/12/29 06:37:04;;;;;;;0.70;0.30;;;;;;;19.64;43.84;99117.97;5112701;28;20055;-55
2021/12/29 06:39:30;;;;;;;0.32;0.30;;;;;;;19.56;44.23;99116.22;5112639;28;20051;-54
2021/12/29 06:41:55;;;;;;;0.30;0.30;;;;;;;19.47;44.31;99102.63;5112549;28;20423;-55
2021/12/29 06:44:21;;;;;;;0.38;0.38;;;;;;;19.46;44.43;99109.34;5112320;28;20141;-55
2021/12/29 06:46:46;;;;;;;0.63;0.40;;;;;;;19.42;44.51;99125.13;5112406;28;20036;-55
2021/12/29 06:49:12;;;;;;;0.40;0.40;;;;;;;19.36;44.49;99121.06;5112307;28;20127;-55
2021/12/29 06:51:37;;;;;;;0.82;0.40;;;;;;;19.33;44.64;99114.31;5112528;28;20407;-55
2021/12/29 06:54:02;;;;;;;0.30;0.30;;;;;;;19.32;44.70;99123.81;5112255;28;20036;-55
2021/12/29 06:56:28;;;;;;;0.30;0.28;;;;;;;19.29;44.75;99120.94;5111792;28;20050;-55
2021/12/29 06:58:53;;;;;;;0.35;0.30;;;;;;;19.28;44.79;99122.94;5112153;28;20036;-55
2021/12/29 07:01:19;;;;;;;0.40;0.35;;;;;;;19.25;44.80;99130.03;5112231;28;20040;-55
2021/12/29 07:03:44;;;;;;;0.60;0.40;;;;;;;19.25;44.84;99132.00;5112163;28;20055;-55
2021/12/29 07:06:09;;;;;;;0.52;0.43;;;;;;;19.27;44.84;99131.63;5111983;28;20513;-55
2021/12/29 07:08:35;;;;;;;0.50;0.40;;;;;;;19.25;44.77;99127.25;5112234;28;20035;-55
2021/12/29 07:11:01;;;;;;;0.30;0.30;;;;;;;19.22;44.86;99116.13;5112264;28;20047;-55
2021/12/29 07:13:26;;;;;;;0.85;0.20;;;;;;;19.21;44.95;99123.59;5112162;28;20120;-55
2021/12/29 07:15:52;;;;;;;0.28;0.28;;;;;;;19.20;44.91;99135.06;5112010;28;20051;-55
2021/12/29 07:18:17;;;;;;;0.63;0.43;;;;;;;19.20;45.18;99137.84;5111969;28;20060;-55
2021/12/29 07:20:44;;;;;;;0.50;0.40;;;;;;;19.17;44.99;99130.28;5112096;28;20036;-55
2021/12/29 07:23:10;;;;;;;0.40;0.30;;;;;;;19.19;44.88;99137.06;5111855;28;20032;-55
2021/12/29 07:25:36;;;;;;;0.50;0.40;;;;;;;19.17;44.90;99150.50;5111817;28;20048;-55
2021/12/29 07:28:01;;;;;;;0.32;0.30;;;;;;;19.18;44.92;99154.88;5111913;28;20048;-55
2021/12/29 07:30:27;;;;;;;0.57;0.45;;;;;;;19.16;44.93;99151.66;5111794;28;20046;-55
2021/12/29 07:32:52;;;;;;;0.55;0.40;;;;;;;19.17;44.88;99167.13;5111724;28;20044;-55
2021/12/29 07:35:19;;;;;;;0.22;0.22;;;;;;;19.18;44.93;99165.94;5111575;28;20043;-55
2021/12/29 07:37:44;;;;;;;0.70;0.50;;;;;;;19.21;44.72;99181.03;5111701;28;20088;-55
2021/12/29 07:40:10;;;;;;;0.30;0.30;;;;;;;19.19;44.90;99175.06;5111624;28;20437;-55
2021/12/29 07:42:38;;;;;;;0.30;0.30;;;;;;;19.19;44.89;99183.38;5111536;28;20079;-55
2021/12/29 07:45:07;;;;;;;0.65;0.43;;;;;;;19.18;44.91;99190.09;5111521;28;20047;-64
2021/12/29 07:47:33;;;;;;;0.68;0.47;;;;;;;19.20;44.85;99198.84;5111572;28;20052;-55
2021/12/29 07:49:59;;;;;;;0.45;0.30;;;;;;;19.18;44.83;99204.75;5111610;28;20043;-55
2021/12/29 07:52:24;;;;;;;0.50;0.40;;;;;;;19.17;44.73;99202.38;5111579;28;20042;-63
2021/12/29 07:54:49;;;;;;;0.60;0.40;;;;;;;19.17;44.91;99208.72;5111520;28;20466;-63
2021/12/29 07:57:15;;;;;;;0.82;0.50;;;;;;;19.19;44.83;99200.03;5091465;28;20040;-55
2021/12/29 07:59:40;;;;;;;0.60;0.45;;;;;;;19.18;44.93;99193.69;5111350;28;20039;-55
2021/12/29 08:02:16;;;;;;;0.55;0.30;;;;;;;19.16;44.97;99198.78;5111434;28;20051;-55
2021/12/29 08:04:43;;;;;;;0.75;0.50;;;;;;;19.15;45.00;99199.97;5111271;28;20044;-55
2021/12/29 08:07:08;;;;;;;0.70;0.40;;;;;;;19.17;44.82;99197.63;5110404;28;20051;-55
2021/12/29 08:09:34;;;;;;;0.98;0.50;;;;;;;19.18;44.91;99203.97;5111204;28;20048;-55
2021/12/29 08:11:59;;;;;;;0.70;0.60;;;;;;;19.16;44.97;99190.47;5111019;28;20084;-55
2021/12/29 08:14:24;;;;;;;0.63;0.40;;;;;;;19.17;44.95;99189.31;5111051;28;20173;-55
2021/12/29 08:16:50;;;;;;;0.40;0.40;;;;;;;19.16;44.97;99192.44;5111007;28;20075;-55
2021/12/29 08:19:16;;;;;;;0.60;0.45;;;;;;;19.13;44.89;99182.88;5110921;28;20127;-55
2021/12/29 08:21:42;;;;;;;0.80;0.52;;;;;;;19.15;44.93;99190.84;5110833;28;20047;-55
2021/12/29 08:24:07;;;;;;;1.10;0.55;;;;;;;19.15;44.95;99188.09;5110739;28;20071;-55
2021/12/29 08:26:34;;;;;;;0.77;0.40;;;;;;;19.14;45.05;99180.91;5111080;28;20165;-64
2021/12/29 08:29:01;;;;;;;0.93;0.50;;;;;;;19.14;45.04;99178.94;5110851;28;20071;-64
2021/12/29 08:31:27;;;;;;;0.70;0.50;;;;;;;19.15;45.12;99182.53;5110882;28;20522;-64
2021/12/29 08:33:53;;;;;;;0.77;0.43;;;;;;;19.15;44.97;99188.88;5110825;28;20035;-64
2021/12/29 08:36:18;;;;;;;1.33;0.60;;;;;;;19.13;44.86;99191.19;5110737;28;20449;-64
2021/12/29 08:38:43;;;;;;;0.80;0.60;;;;;;;19.15;44.98;99179.75;5110414;28;20083;-64
2021/12/29 08:41:11;;;;;;;0.82;0.50;;;;;;;19.14;44.95;99186.44;5110434;28;20442;-63
2021/12/29 08:43:37;;;;;;;1.10;0.60;;;;;;;19.12;45.12;99189.59;5110674;28;20062;-64
2021/12/29 08:46:03;;;;;;;0.50;0.40;;;;;;;19.13;45.00;99196.75;5110592;28;20419;-64
2021/12/29 08:48:28;;;;;;;0.68;0.43;;;;;;;19.12;44.97;99203.47;5110587;28;20036;-64
2021/12/29 08:50:57;;;;;;;1.23;0.40;;;;;;;19.12;45.00;99202.66;5110567;28;20133;-64
2021/12/29 08:53:23;;;;;;;0.82;0.57;;;;;;;19.11;45.01;99207.41;5110416;28;20104;-64
2021/12/29 08:55:49;;;;;;;1.05;0.60;;;;;;;19.11;45.07;99212.94;5110165;28;20043;-55
2021/12/29 08:58:15;;;;;;;0.95;0.55;;;;;;;19.09;45.02;99206.19;5109970;28;20044;-64
2021/12/29 09:00:41;;;;;;;1.02;0.50;;;;;;;19.10;45.10;99214.13;5110103;28;20118;-63
2021/12/29 09:03:07;;;;;;;1.00;0.52;;;;;;;19.11;45.18;99220.47;5110284;28;20072;-64
2021/12/29 09:05:33;;;;;;;0.88;0.50;;;;;;;19.13;44.97;99218.13;5110224;28;20459;-64
2021/12/29 09:07:59;;;;;;;0.85;0.60;;;;;;;19.11;45.10;99215.72;5110177;28;20058;-64
2021/12/29 09:10:25;;;;;;;0.95;0.60;;;;;;;19.08;45.20;99204.59;5110155;28;20044;-64
2021/12/29 09:12:51;;;;;;;1.45;0.60;;;;;;;19.07;45.23;99209.31;5110298;28;20085;-64
2021/12/29 09:15:18;;;;;;;1.15;0.70;;;;;;;19.10;45.18;99210.56;5110200;28;20052;-64
2021/12/29 09:17:44;;;;;;;1.08;0.52;;;;;;;19.10;45.07;99213.31;5110063;28;20048;-64
2021/12/29 09:20:25;;;;;;;0.52;0.50;;;;;;;19.10;45.18;99216.09;5110030;28;20389;-64
2021/12/29 09:22:52;;;;;;;0.70;0.47;;;;;;;19.10;45.19;99216.91;5110170;28;20499;-64
2021/12/29 09:25:20;;;;;;;1.20;0.63;;;;;;;19.10;45.20;99219.66;5109898;28;20070;-55
2021/12/29 09:27:49;;;;;;;0.57;0.50;;;;;;;19.10;45.15;99218.88;5110223;28;20048;-55
2021/12/29 09:30:17;;;;;;;0.98;0.60;;;;;;;19.08;45.28;99218.44;5110054;28;20047;-55
2021/12/29 09:32:43;;;;;;;0.52;0.43;;;;;;;19.09;45.24;99231.94;5109978;28;20126;-55
2021/12/29 09:35:08;;;;;;;0.70;0.50;;;;;;;19.11;45.23;99237.91;5109929;28;20126;-55
2021/12/29 09:37:34;;;;;;;0.88;0.55;;;;;;;19.10;45.25;99225.22;5091611;28;20043;-55
2021/12/29 09:39:59;;;;;;;0.70;0.40;;;;;;;19.12;45.23;99230.38;5110063;28;20052;-55
2021/12/29 09:42:25;;;;;;;0.75;0.40;;;;;;;19.12;45.25;99227.63;5109704;28;20036;-55
2021/12/29 09:44:51;;;;;;;1.10;0.50;;;;;;;19.23;44.93;99229.44;5109653;28;20654;-55
2021/12/29 09:47:17;;;;;;;1.13;0.57;;;;;;;20.37;42.78;99215.78;5109537;28;20438;-55
2021/12/29 09:49:43;;;;;;;0.60;0.50;;;;;;;20.32;42.74;99212.16;5109638;28;20040;-55
2021/12/29 09:52:09;;;;;;;0.95;0.47;;;;;;;20.10;43.37;99213.03;5109634;28;20044;-56
2021/12/29 09:54:34;;;;;;;0.65;0.50;;;;;;;19.91;43.58;99213.94;5109804;28;20051;-55
2021/12/29 09:57:00;;;;;;;1.38;0.60;;;;;;;19.76;43.91;99207.34;5109838;28;20043;-55
2021/12/29 09:59:26;;;;;;;0.70;0.50;;;;;;;20.67;42.37;99204.69;5109698;28;20050;-55
2021/12/29 10:01:51;;;;;;;0.85;0.50;;;;;;;21.21;41.10;99198.50;5109685;28;20415;-55
2021/12/29 10:04:17;;;;;;;0.85;0.52;;;;;;;20.85;41.88;99194.53;5109586;28;20039;-55
2021/12/29 10:06:43;;;;;;;1.15;0.68;;;;;;;20.54;42.33;99185.47;5109347;28;20043;-55
2021/12/29 10:09:15;;;;;;;1.13;0.60;;;;;;;20.28;43.01;99177.94;5109257;28;20048;-55
2021/12/29 10:11:42;;;;;;;0.83;0.50;;;;;;;20.09;43.28;99174.53;5109195;28;20491;-55
2021/12/29 10:14:11;;;;;;;1.17;0.60;;;;;;;19.95;43.68;99180.69;5109266;28;20052;-55
2021/12/29 10:16:37;;;;;;;0.90;0.50;;;;;;;19.81;43.84;99177.69;5109231;28;20075;-55
2021/12/29 10:19:12;;;;;;;0.50;0.40;;;;;;;19.69;44.29;99162.84;5109504;28;20488;-55
2021/12/29 10:21:46;;;;;;;0.88;0.60;;;;;;;19.61;44.35;99158.38;5109135;28;20496;-55
2021/12/29 10:24:13;;;;;;;1.13;0.60;;;;;;;19.54;44.49;99158.22;5109161;28;20059;-55
2021/12/29 10:26:43;;;;;;;1.35;0.68;;;;;;;19.48;44.70;99163.28;5109215;28;20122;-55
2021/12/29 10:29:12;;;;;;;0.75;0.55;;;;;;;19.46;44.80;99190.59;5109178;28;20047;-56
2021/12/29 10:31:43;;;;;;;0.82;0.50;;;;;;;19.41;45.02;99196.44;5111941;28;20074;-55
2021/12/29 10:34:17;;;;;;;1.45;0.52;;;;;;;19.37;44.98;99212.25;5112891;28;20044;-55
2021/12/29 10:36:49;;;;;;;1.08;0.57;;;;;;;19.35;45.03;99202.66;5112626;28;20044;-55
2021/12/29 10:39:43;;;;;;;0.68;0.50;;;;;;;19.33;45.16;99191.16;5112692;28;20100;-55
2021/12/29 10:42:19;;;;;;;0.77;0.60;;;;;;;19.30;45.27;99194.69;5090528;28;20058;-55
2021/12/29 10:44:46;;;;;;;1.33;0.80;;;;;;;19.30;45.25;99203.00;5112159;28;20059;-55
2021/12/29 10:47:18;;;;;;;1.10;0.65;;;;;;;19.29;45.45;99209.69;5112342;28;20051;-55
2021/12/29 10:49:53;;;;;;;0.95;0.50;;;;;;;19.23;45.32;99207.25;5112435;28;20519;-55
2021/12/29 10:52:43;;;;;;;0.95;0.60;;;;;;;19.26;45.39;99197.38;5112285;28;20116;-55
2021/12/29 10:55:21;;;;;;;1.08;0.60;;;;;;;19.24;45.43;99197.75;5112392;28;20043;-64
2021/12/29 10:58:00;;;;;;;0.88;0.68;;;;;;;19.23;45.46;99196.16;5112327;28;20071;-64
2021/12/29 11:00:26;;;;;;;0.95;0.60;;;;;;;19.25;45.34;99207.66;5112234;28;20047;-64
2021/12/29 11:02:52;;;;;;;1.05;0.65;;;;;;;19.21;45.48;99204.00;5112172;28;20092;-64
2021/12/29 11:05:18;;;;;;;1.35;0.77;;;;;;;19.22;45.51;99213.97;5112128;28;20283;-64
2021/12/29 11:07:43;;;;;;;1.75;0.80;;;;;;;19.21;45.59;99223.41;5112148;28;20051;-64
2021/12/29 11:10:10;;;;;;;1.50;0.80;;;;;;;19.23;45.51;99229.44;5112188;28;20137;-64
2021/12/29 11:12:51;;;;;;;1.05;0.70;;;;;;;19.20;45.52;99210.72;5111950;28;20515;-64
2021/12/29 11:15:19;;;;;;;1.38;0.82;;;;;;;19.22;45.60;99219.50;5112040;28;20048;-64
2021/12/29 11:17:45;;;;;;;1.05;0.50;;;;;;;19.20;45.60;99207.97;5112024;28;20075;-64
2021/12/29 11:20:19;;;;;;;1.10;0.70;;;;;;;19.21;45.61;99197.66;5111834;28;20128;-64
2021/12/29 11:22:45;;;;;;;0.93;0.63;;;;;;;19.22;45.63;99171.56;5111976;28;20079;-64
2021/12/29 11:25:10;;;;;;;1.30;0.77;;;;;;;19.21;45.63;99165.19;5111899;28;20131;-64
2021/12/29 11:27:37;;;;;;;0.90;0.60;;;;;;;19.20;45.66;99213.50;5111822;28;20043;-64
2021/12/29 11:30:12;;;;;;;0.85;0.60;;;;;;;19.21;45.57;99181.84;5111615;28;20052;-64
2021/12/29 11:32:42;;;;;;;0.93;0.60;;;;;;;19.20;45.65;99123.97;5111813;28;20088;-55
2021/12/29 11:35:14;;;;;;;0.98;0.60;;;;;;;19.18;45.66;99154.88;5111727;28;20428;-55
2021/12/29 11:37:41;;;;;;;0.60;0.52;;;;;;;19.18;45.76;99210.31;5111625;28;20134;-64
2021/12/29 11:40:08;;;;;;;1.30;0.60;;;;;;;19.17;45.74;99191.28;5111653;28;20100;-55
2021/12/29 11:42:34;;;;;;;0.77;0.50;;;;;;;19.18;45.80;99171.50;5110129;28;20054;-55